Time;durP1;ratioP1;P1;durP2;ratioP2;P2;SDS_P1;SDS_P2;PMS_P1;PMS_P2;Temp;Humidity;BMP_temperature;BMP_pressure;BME280_temperature;BME280_humidity;BME280_pressure;Samples;Min_cycle;Max_cycle;Signal;HPM_P1;HPM_P2
2023/10/17 00:01:04;;;;;;;0.20;0.20;;;;;;;1.77;100.00;96016.09;1011118;29;20056;-75
2023/10/17 00:01:35;;;;;;;0.60;0.60;;;;;;;1.65;100.00;96003.78;1018130;29;20952;-75
2023/10/17 00:02:10;;;;;;;1.02;0.95;;;;;;;1.79;100.00;96024.47;1015403;29;20271;-75
2023/10/17 00:02:41;;;;;;;0.52;0.52;;;;;;;1.77;100.00;96023.84;1017834;29;20031;-75
2023/10/17 00:03:14;;;;;;;0.25;0.25;;;;;;;1.77;100.00;96022.06;1017521;29;20318;-74
2023/10/17 00:03:45;;;;;;;2.95;1.67;;;;;;;1.73;100.00;96013.09;1023057;29;20652;-75
2023/10/17 00:04:46;;;;;;;0.75;0.75;;;;;;;1.81;100.00;96025.03;1023413;28;20632;-76
2023/10/17 00:05:20;;;;;;;0.20;0.20;;;;;;;1.81;100.00;96028.44;1015399;29;20024;-76
2023/10/17 00:05:54;;;;;;;1.52;1.42;;;;;;;1.82;100.00;96018.88;1019133;29;20103;-75
2023/10/17 00:06:26;;;;;;;0.40;0.40;;;;;;;1.85;100.00;96018.50;1016342;29;20268;-75
2023/10/17 00:07:02;;;;;;;0.10;0.10;;;;;;;1.76;100.00;96010.13;1020457;29;20792;-75
2023/10/17 00:07:34;;;;;;;0.90;0.90;;;;;;;1.80;100.00;96010.53;1023313;29;20343;-75
2023/10/17 00:08:09;;;;;;;0.70;0.70;;;;;;;1.85;100.00;96018.50;1022559;29;20263;-74
2023/10/17 00:08:40;;;;;;;0.68;0.68;;;;;;;1.83;100.00;96017.88;1023117;29;20263;-74
2023/10/17 00:09:21;;;;;;;2.28;0.63;;;;;;;1.83;100.00;96021.25;1019137;29;20272;-74
2023/10/17 00:09:53;;;;;;;0.22;0.22;;;;;;;1.83;100.00;96018.69;1017223;29;20284;-74
2023/10/17 00:10:29;;;;;;;0.88;0.88;;;;;;;1.85;100.00;96016.69;1015407;29;20036;-74
2023/10/17 00:11:17;;;;;;;0.28;0.28;;;;;;;1.85;100.00;96018.50;1015288;29;20296;-75
2023/10/17 00:12:52;;;;;;;0.85;0.85;;;;;;;1.84;100.00;96022.06;1018807;29;20279;-75
2023/10/17 00:13:38;;;;;;;0.10;0.10;;;;;;;1.80;100.00;96015.69;1014870;29;20028;-75
2023/10/17 00:14:11;;;;;;;0.55;0.47;;;;;;;1.80;100.00;96021.66;1013971;29;20039;-76
2023/10/17 00:14:45;;;;;;;1.55;0.68;;;;;;;1.79;100.00;96017.50;1018871;29;20267;-75
2023/10/17 00:15:28;;;;;;;1.67;1.23;;;;;;;1.78;100.00;96012.53;1014750;29;20383;-74
2023/10/17 00:16:00;;;;;;;0.65;0.57;;;;;;;1.79;100.00;96016.69;1015414;29;20279;-75
2023/10/17 00:16:32;;;;;;;0.17;0.17;;;;;;;1.84;100.00;96019.47;1014868;29;20264;-75
2023/10/17 00:17:04;;;;;;;1.77;1.20;;;;;;;1.75;100.00;96013.72;1007597;29;20269;-75
2023/10/17 00:17:34;;;;;;;0.30;0.30;;;;;;;1.80;100.00;96020.88;1011420;29;20309;-76
2023/10/17 00:18:18;;;;;;;1.55;0.82;;;;;;;1.80;100.00;96020.88;1011731;29;20797;-75
2023/10/17 00:18:49;;;;;;;0.35;0.30;;;;;;;1.78;100.00;96023.66;1015191;29;20486;-75
2023/10/17 00:19:25;;;;;;;0.52;0.52;;;;;;;1.79;100.00;96024.47;1016937;29;20263;-74
2023/10/17 00:19:55;;;;;;;0.25;0.25;;;;;;;1.73;100.00;96017.50;1019807;28;20060;-75
2023/10/17 00:20:32;;;;;;;2.28;0.73;;;;;;;1.72;100.00;96015.91;1017526;29;20279;-75
2023/10/17 00:21:17;;;;;;;0.22;0.22;;;;;;;1.76;100.00;96015.31;1019501;29;20020;-75
2023/10/17 00:21:49;;;;;;;0.75;0.75;;;;;;;1.74;100.00;96019.88;1015120;29;20264;-75
2023/10/17 00:22:23;;;;;;;0.30;0.30;;;;;;;1.71;100.00;96014.31;1015913;29;20266;-75
2023/10/17 00:22:54;;;;;;;0.63;0.63;;;;;;;1.74;100.00;96021.66;1026510;28;20286;-75
2023/10/17 00:23:27;;;;;;;1.95;1.80;;;;;;;1.73;100.00;96014.91;1027681;28;20266;-75
2023/10/17 00:23:59;;;;;;;1.50;1.08;;;;;;;1.74;100.00;96021.66;1015248;29;20272;-75
2023/10/17 00:24:30;;;;;;;0.43;0.43;;;;;;;1.72;100.00;96011.53;1014980;29;20276;-75
2023/10/17 00:25:09;;;;;;;0.28;0.28;;;;;;;1.72;100.00;96014.13;1022743;29;20277;-76
2023/10/17 00:25:42;;;;;;;0.17;0.13;;;;;;;1.64;100.00;96012.53;1025890;28;20560;-75
2023/10/17 00:26:14;;;;;;;0.50;0.50;;;;;;;1.69;100.00;96018.91;1029280;28;20277;-75
2023/10/17 00:26:44;;;;;;;0.20;0.20;;;;;;;1.64;100.00;96012.53;1025428;28;20258;-76
2023/10/17 00:27:15;;;;;;;0.47;0.47;;;;;;;1.63;100.00;96018.69;1031121;28;20766;-75
2023/10/17 00:27:45;;;;;;;1.15;0.65;;;;;;;1.65;100.00;96021.09;1026852;28;20029;-74
2023/10/17 00:28:20;;;;;;;0.52;0.52;;;;;;;1.62;100.00;96016.31;1023328;29;20091;-75
2023/10/17 00:28:52;;;;;;;0.55;0.55;;;;;;;1.62;100.00;96024.84;1026196;28;20610;-75
2023/10/17 00:29:23;;;;;;;2.08;1.42;;;;;;;1.63;100.00;96025.66;1024051;28;20319;-76
2023/10/17 00:29:53;;;;;;;0.50;0.50;;;;;;;1.54;100.00;96012.13;1023104;29;20628;-75
2023/10/17 00:30:29;;;;;;;0.38;0.38;;;;;;;1.60;100.00;96021.66;1024346;28;20023;-74
2023/10/17 00:30:59;;;;;;;0.20;0.20;;;;;;;1.59;100.00;96020.09;1023272;29;20103;-75
2023/10/17 00:31:30;;;;;;;0.32;0.32;;;;;;;1.60;100.00;96021.66;1023788;28;20279;-75
2023/10/17 00:32:00;;;;;;;0.45;0.45;;;;;;;1.58;100.00;96023.66;1027262;28;20061;-75
2023/10/17 00:32:31;;;;;;;0.85;0.85;;;;;;;1.58;100.00;96022.88;1026388;28;20023;-76
2023/10/17 00:33:01;;;;;;;1.55;0.85;;;;;;;1.58;100.00;96015.91;1022799;29;20548;-75
2023/10/17 00:33:32;;;;;;;0.40;0.40;;;;;;;1.55;100.00;96013.72;1019278;29;20020;-75
2023/10/17 00:34:13;;;;;;;0.20;0.20;;;;;;;1.60;100.00;96026.84;1023083;29;20580;-75
2023/10/17 00:34:46;;;;;;;2.53;0.40;;;;;;;1.57;100.00;96021.25;1024737;28;20251;-75
2023/10/17 00:35:19;;;;;;;0.20;0.20;;;;;;;1.51;100.00;96009.94;1026837;28;20046;-75
2023/10/17 00:35:49;;;;;;;0.32;0.32;;;;;;;1.52;100.00;96016.69;1026943;28;20278;-74
2023/10/17 00:36:21;;;;;;;0.82;0.82;;;;;;;1.55;100.00;96018.09;1023220;29;20279;-75
2023/10/17 00:37:00;;;;;;;1.60;1.45;;;;;;;1.54;100.00;96016.50;1022750;29;20031;-75
2023/10/17 00:37:30;;;;;;;0.68;0.68;;;;;;;1.52;100.00;96003.78;1017502;29;20276;-75
2023/10/17 00:38:04;;;;;;;0.20;0.20;;;;;;;1.44;100.00;95998.78;1015001;29;20268;-75
2023/10/17 00:38:43;;;;;;;0.98;0.90;;;;;;;1.54;100.00;96011.31;1019027;29;20513;-76
2023/10/17 00:39:23;;;;;;;0.77;0.43;;;;;;;1.49;100.00;96011.94;1016884;29;20279;-75
2023/10/17 00:39:56;;;;;;;0.98;0.90;;;;;;;1.50;100.00;96008.34;1019052;29;20640;-75
2023/10/17 00:40:34;;;;;;;1.13;1.10;;;;;;;1.49;100.00;96011.94;1020245;29;20042;-75
2023/10/17 00:41:05;;;;;;;0.65;0.65;;;;;;;1.41;100.00;96002.59;1019093;29;20343;-75
2023/10/17 00:42:09;;;;;;;0.57;0.57;;;;;;;1.47;100.00;96011.31;1012779;29;20694;-75
2023/10/17 00:42:41;;;;;;;0.45;0.45;;;;;;;1.46;100.00;96004.56;1011083;29;20335;-76
2023/10/17 00:43:12;;;;;;;0.55;0.47;;;;;;;1.46;100.00;96008.94;1016533;29;20791;-75
2023/10/17 00:43:42;;;;;;;1.20;0.82;;;;;;;1.42;100.00;95998.19;1019385;29;20362;-74
2023/10/17 00:44:14;;;;;;;0.95;0.90;;;;;;;1.37;100.00;95992.81;1027108;28;20062;-75
2023/10/17 00:44:47;;;;;;;0.13;0.13;;;;;;;1.41;100.00;95997.41;1026756;28;20027;-76
2023/10/17 00:45:18;;;;;;;0.32;0.32;;;;;;;1.40;100.00;95995.00;1027290;28;20695;-76
2023/10/17 00:45:49;;;;;;;1.13;0.55;;;;;;;1.40;100.00;96005.34;1018194;29;20681;-75
2023/10/17 00:46:20;;;;;;;0.47;0.47;;;;;;;1.40;100.00;95995.78;1014106;29;20313;-74
2023/10/17 00:46:52;;;;;;;0.20;0.20;;;;;;;1.40;100.00;96000.19;1014968;29;20024;-75
2023/10/17 00:47:23;;;;;;;0.57;0.57;;;;;;;1.41;100.00;95996.63;1018238;28;20641;-75
2023/10/17 00:47:53;;;;;;;0.13;0.13;;;;;;;1.36;100.00;95986.06;1027216;28;20266;-75
2023/10/17 00:48:26;;;;;;;0.10;0.10;;;;;;;1.40;100.00;95995.00;1022767;29;20063;-75
2023/10/17 00:48:56;;;;;;;0.50;0.50;;;;;;;1.33;100.00;95984.66;1022779;29;20023;-74
2023/10/17 00:49:33;;;;;;;2.70;2.45;;;;;;;1.36;100.00;95993.81;1018855;29;20331;-75
2023/10/17 00:50:12;;;;;;;0.20;0.20;;;;;;;1.34;100.00;95999.19;1019207;29;20677;-75
2023/10/17 00:50:47;;;;;;;0.40;0.40;;;;;;;1.30;100.00;95994.59;1018770;29;20256;-74
2023/10/17 00:51:21;;;;;;;0.15;0.15;;;;;;;1.26;100.00;95988.25;1021581;29;20279;-74
2023/10/17 00:51:56;;;;;;;1.02;0.70;;;;;;;1.33;100.00;96001.97;1011101;29;20268;-75
2023/10/17 00:52:32;;;;;;;0.30;0.30;;;;;;;1.34;100.00;95998.38;1014952;29;20287;-75
2023/10/17 00:53:03;;;;;;;0.85;0.85;;;;;;;1.34;100.00;96006.13;1030924;28;20262;-75
2023/10/17 00:53:33;;;;;;;1.00;1.00;;;;;;;1.27;100.00;95990.63;1030819;28;20723;-76
2023/10/17 00:54:04;;;;;;;1.23;1.23;;;;;;;1.26;100.00;95998.59;1011311;29;20020;-73
2023/10/17 00:54:35;;;;;;;1.55;0.65;;;;;;;1.26;100.00;95993.41;1013556;29;20067;-75
2023/10/17 00:55:05;;;;;;;0.45;0.45;;;;;;;1.30;100.00;96004.94;1015124;29;20028;-76
2023/10/17 00:55:37;;;;;;;0.80;0.43;;;;;;;1.18;100.00;95981.47;1014947;29;20785;-76
2023/10/17 00:56:07;;;;;;;0.93;0.63;;;;;;;1.29;100.00;96008.53;1007181;29;20053;-74
2023/10/17 00:56:40;;;;;;;0.30;0.30;;;;;;;1.27;100.00;96003.53;1015299;29;20311;-76
2023/10/17 00:57:13;;;;;;;0.32;0.32;;;;;;;1.21;100.00;96004.34;1011697;29;20041;-75
2023/10/17 00:57:45;;;;;;;1.00;0.95;;;;;;;1.19;100.00;96006.31;1018242;29;20722;-75
2023/10/17 00:58:18;;;;;;;0.45;0.38;;;;;;;1.15;100.00;96003.34;1018370;29;20275;-74
2023/10/17 00:58:51;;;;;;;0.10;0.10;;;;;;;1.10;100.00;96000.53;1016301;29;20339;-76
2023/10/17 00:59:24;;;;;;;0.35;0.35;;;;;;;1.09;100.00;96003.31;1026824;28;20798;-76
2023/10/17 00:59:56;;;;;;;0.77;0.77;;;;;;;1.08;100.00;95999.94;1026159;28;20431;-75
2023/10/17 01:00:47;;;;;;;2.63;2.40;;;;;;;1.06;100.00;96001.13;1022958;29;20294;-75
2023/10/17 01:01:20;;;;;;;1.27;1.17;;;;;;;1.07;100.00;96000.94;1012408;29;20286;-76
2023/10/17 01:01:51;;;;;;;1.65;0.57;;;;;;;1.03;100.00;96004.09;1014931;29;20816;-75
2023/10/17 01:02:23;;;;;;;0.30;0.30;;;;;;;0.95;100.00;95989.59;1015900;29;20808;-75
2023/10/17 01:03:01;;;;;;;0.30;0.30;;;;;;;0.98;100.00;95996.94;1022243;28;20394;-75
2023/10/17 01:03:31;;;;;;;0.47;0.47;;;;;;;0.96;100.00;96000.72;1018642;29;20260;-75
2023/10/17 01:04:02;;;;;;;1.45;1.05;;;;;;;0.94;100.00;96000.94;1018593;29;20251;-76
2023/10/17 01:04:40;;;;;;;0.85;0.85;;;;;;;0.88;100.00;95993.94;1015113;29;20020;-74
2023/10/17 01:05:12;;;;;;;1.08;1.02;;;;;;;0.84;100.00;95990.16;1022632;29;20262;-74
2023/10/17 01:05:42;;;;;;;0.10;0.10;;;;;;;0.90;100.00;95995.31;1019036;29;20287;-74
2023/10/17 01:07:06;;;;;;;0.25;0.25;;;;;;;0.90;100.00;95997.13;1017693;29;20017;-75
2023/10/17 01:07:39;;;;;;;0.77;0.52;;;;;;;0.89;100.00;96000.69;1019304;29;20705;-73
2023/10/17 01:08:10;;;;;;;0.70;0.70;;;;;;;0.85;100.00;95994.34;1016682;29;20272;-75
2023/10/17 01:08:46;;;;;;;0.15;0.15;;;;;;;0.87;100.00;95992.34;1022964;28;20259;-75
2023/10/17 01:09:19;;;;;;;0.28;0.28;;;;;;;0.89;100.00;95992.94;1022722;29;20066;-75
2023/10/17 01:09:55;;;;;;;2.34;0.78;;;;;;;0.88;100.00;95992.16;1021593;29;20282;-75
2023/10/17 01:10:28;;;;;;;0.13;0.13;;;;;;;0.84;100.00;95990.16;1011311;29;20036;-76
2023/10/17 01:10:59;;;;;;;0.20;0.20;;;;;;;0.75;100.00;95976.63;1012403;29;20307;-75
2023/10/17 01:11:29;;;;;;;2.30;1.27;;;;;;;0.74;100.00;95985.38;1019954;29;21119;-74
2023/10/17 01:12:10;;;;;;;0.17;0.17;;;;;;;0.76;100.00;95985.97;1012949;29;20458;-75
2023/10/17 01:12:46;;;;;;;8.05;2.85;;;;;;;0.74;100.00;95984.56;1017561;29;20046;-75
2023/10/17 01:13:17;;;;;;;0.10;0.10;;;;;;;0.77;100.00;95991.91;1021499;29;20273;-74
2023/10/17 01:13:53;;;;;;;0.13;0.13;;;;;;;0.77;100.00;95990.16;1018853;29;20609;-75
2023/10/17 01:14:24;;;;;;;0.63;0.63;;;;;;;0.75;100.00;95986.16;1021889;29;20031;-74
2023/10/17 01:14:54;;;;;;;1.10;1.05;;;;;;;0.68;100.00;95973.22;1021338;28;21106;-75
2023/10/17 01:15:28;;;;;;;0.03;0.03;;;;;;;0.73;100.00;95982.97;1019953;29;20055;-75
2023/10/17 01:15:58;;;;;;;0.68;0.68;;;;;;;0.74;100.00;95980.22;1022270;29;20027;-74
2023/10/17 01:16:31;;;;;;;0.10;0.10;;;;;;;0.74;100.00;95987.13;1013141;29;20031;-75
2023/10/17 01:17:07;;;;;;;0.78;0.78;;;;;;;0.76;100.00;95985.97;1015645;29;20035;-75
2023/10/17 01:17:38;;;;;;;1.50;1.40;;;;;;;0.81;100.00;95980.22;1014951;29;20067;-74
2023/10/17 01:18:08;;;;;;;0.30;0.30;;;;;;;0.77;100.00;95979.81;1011117;29;20281;-75
2023/10/17 01:18:38;;;;;;;2.08;1.85;;;;;;;0.80;100.00;95976.03;1014486;29;20096;-75
2023/10/17 01:19:11;;;;;;;0.30;0.30;;;;;;;0.79;100.00;95977.81;1015104;29;20039;-75
2023/10/17 01:19:42;;;;;;;0.26;0.26;;;;;;;0.77;100.00;95976.41;1011432;29;20101;-75
2023/10/17 01:20:18;;;;;;;0.76;0.70;;;;;;;0.76;100.00;95972.25;1017409;29;20067;-74
2023/10/17 01:20:49;;;;;;;0.60;0.60;;;;;;;0.80;100.00;95973.44;1010983;29;20125;-75
2023/10/17 01:21:20;;;;;;;0.45;0.45;;;;;;;0.72;100.00;95969.28;1008411;29;20048;-76
2023/10/17 01:21:50;;;;;;;0.38;0.35;;;;;;;0.76;100.00;95972.25;1012940;29;20039;-75
2023/10/17 01:22:21;;;;;;;0.20;0.20;;;;;;;0.75;100.00;95965.50;1015661;29;20024;-75
2023/10/17 01:22:56;;;;;;;0.80;0.80;;;;;;;0.75;100.00;95971.47;1014618;29;20031;-75
2023/10/17 01:23:29;;;;;;;0.10;0.10;;;;;;;0.73;100.00;95965.69;1019904;29;20054;-75
2023/10/17 01:24:03;;;;;;;1.02;0.80;;;;;;;0.76;100.00;95974.84;1022885;29;20039;-76
2023/10/17 01:24:34;;;;;;;1.00;0.76;;;;;;;0.73;100.00;95968.28;1018771;29;20346;-75
2023/10/17 01:25:17;;;;;;;0.28;0.28;;;;;;;0.72;100.00;95968.47;1018501;29;20110;-76
2023/10/17 01:25:50;;;;;;;0.82;0.82;;;;;;;0.70;100.00;95971.25;1018916;29;20047;-75
2023/10/17 01:26:21;;;;;;;0.62;0.62;;;;;;;0.64;100.00;95956.53;1020775;29;20078;-75
2023/10/17 01:26:52;;;;;;;0.28;0.28;;;;;;;0.69;100.00;95973.03;1012996;29;20093;-75
2023/10/17 01:27:23;;;;;;;0.12;0.12;;;;;;;0.68;100.00;95973.22;1011184;29;20036;-75
2023/10/17 01:27:54;;;;;;;0.10;0.10;;;;;;;0.66;100.00;95970.84;1003884;29;20068;-75
2023/10/17 01:28:24;;;;;;;0.48;0.48;;;;;;;0.66;100.00;95970.84;1011473;29;20024;-75
2023/10/17 01:28:55;;;;;;;0.00;0.00;;;;;;;0.68;100.00;95962.91;1018987;29;20057;-75
2023/10/17 01:29:25;;;;;;;2.03;1.17;;;;;;;0.65;100.00;95965.88;1019129;29;20087;-76
2023/10/17 01:29:56;;;;;;;2.10;0.75;;;;;;;0.67;100.00;95969.03;1018838;29;20016;-75
2023/10/17 01:30:30;;;;;;;0.68;0.68;;;;;;;0.61;100.00;95959.50;1022377;29;20019;-76
2023/10/17 01:31:03;;;;;;;0.00;0.00;;;;;;;0.64;100.00;95962.50;1018976;29;20585;-75
2023/10/17 01:31:38;;;;;;;1.10;1.00;;;;;;;0.64;100.00;95967.66;1021944;29;21099;-76
2023/10/17 01:32:09;;;;;;;0.20;0.20;;;;;;;0.59;100.00;95951.94;1019962;29;20039;-75
2023/10/17 01:32:41;;;;;;;0.17;0.17;;;;;;;0.63;100.00;95957.50;1019740;29;20278;-74
2023/10/17 01:33:12;;;;;;;1.50;1.04;;;;;;;0.62;100.00;95961.09;1019906;29;20584;-76
2023/10/17 01:33:43;;;;;;;0.40;0.40;;;;;;;0.62;100.00;95950.78;1015721;29;20028;-75
2023/10/17 01:34:14;;;;;;;1.10;0.93;;;;;;;0.58;100.00;95958.09;1006958;29;20656;-74
2023/10/17 01:34:47;;;;;;;0.40;0.40;;;;;;;0.61;100.00;95960.31;1019037;29;20036;-75
2023/10/17 01:35:19;;;;;;;0.16;0.16;;;;;;;0.57;100.00;95947.97;1018865;29;20276;-75
2023/10/17 01:35:50;;;;;;;0.42;0.42;;;;;;;0.60;100.00;95965.66;1023050;29;20027;-75
2023/10/17 01:36:21;;;;;;;0.65;0.65;;;;;;;0.61;100.00;95965.47;1023684;29;20027;-76
2023/10/17 01:36:53;;;;;;;0.32;0.20;;;;;;;0.60;100.00;95960.47;1022692;29;20515;-75
2023/10/17 01:37:23;;;;;;;0.22;0.22;;;;;;;0.60;100.00;95958.69;1018946;29;20031;-74
2023/10/17 01:37:57;;;;;;;0.90;0.63;;;;;;;0.52;100.00;95951.13;1018952;29;20023;-75
2023/10/17 01:38:30;;;;;;;0.38;0.38;;;;;;;0.58;100.00;95959.91;1019074;29;20544;-75
2023/10/17 01:39:08;;;;;;;0.68;0.56;;;;;;;0.62;100.00;95961.09;1022199;29;20275;-76
2023/10/17 01:39:38;;;;;;;1.08;0.78;;;;;;;0.59;100.00;95959.69;1018918;29;20074;-76
2023/10/17 01:40:10;;;;;;;0.95;0.50;;;;;;;0.57;100.00;95963.44;1017547;29;20430;-75
2023/10/17 01:40:40;;;;;;;0.76;0.76;;;;;;;0.61;100.00;95969.84;1013769;29;20020;-75
2023/10/17 01:41:10;;;;;;;1.70;1.10;;;;;;;0.53;100.00;95955.31;1015785;29;20059;-75
2023/10/17 01:41:48;;;;;;;0.55;0.30;;;;;;;0.55;100.00;95961.06;1023007;28;20034;-75
2023/10/17 01:42:20;;;;;;;1.26;1.02;;;;;;;0.54;100.00;95964.66;1019581;29;20044;-76
2023/10/17 01:42:51;;;;;;;0.20;0.20;;;;;;;0.55;100.00;95961.06;1022263;29;20110;-76
2023/10/17 01:43:21;;;;;;;0.34;0.34;;;;;;;0.48;100.00;95952.50;1017596;29;20132;-75
2023/10/17 01:43:52;;;;;;;0.55;0.50;;;;;;;0.50;100.00;95954.88;1022623;28;20666;-74
2023/10/17 01:44:24;;;;;;;0.55;0.55;;;;;;;0.52;100.00;95958.88;1026838;28;20026;-75
2023/10/17 01:44:54;;;;;;;0.94;0.44;;;;;;;0.47;100.00;95954.31;1026424;28;20037;-76
2023/10/17 01:45:25;;;;;;;0.52;0.52;;;;;;;0.51;100.00;95956.50;1007008;29;20071;-75
2023/10/17 01:45:56;;;;;;;0.35;0.32;;;;;;;0.49;100.00;95956.69;1011014;29;20024;-75
2023/10/17 01:46:30;;;;;;;0.94;0.94;;;;;;;0.51;100.00;95966.84;1014823;29;20016;-75
2023/10/17 01:47:01;;;;;;;0.42;0.42;;;;;;;0.49;100.00;95961.06;1011196;29;20036;-76
2023/10/17 01:47:31;;;;;;;0.20;0.20;;;;;;;0.47;100.00;95959.47;1019661;28;20594;-75
2023/10/17 01:48:02;;;;;;;0.10;0.10;;;;;;;0.46;100.00;95954.47;1022077;29;20417;-75
2023/10/17 01:48:32;;;;;;;4.65;1.13;;;;;;;0.47;100.00;95959.47;1015039;29;20016;-75
2023/10/17 01:49:10;;;;;;;1.75;1.65;;;;;;;0.46;100.00;95959.66;1020638;29;20088;-75
2023/10/17 01:49:40;;;;;;;0.10;0.10;;;;;;;0.49;100.00;95964.44;1014897;29;20873;-77
2023/10/17 01:50:11;;;;;;;0.00;0.00;;;;;;;0.44;100.00;95969.38;1017066;29;20036;-75
2023/10/17 01:50:41;;;;;;;0.30;0.30;;;;;;;0.44;100.00;95966.81;1017525;29;20103;-75
2023/10/17 01:51:14;;;;;;;0.28;0.28;;;;;;;0.39;100.00;95962.22;1011137;29;20404;-74
2023/10/17 01:51:48;;;;;;;0.50;0.50;;;;;;;0.43;100.00;95962.63;1007416;29;20032;-74
2023/10/17 01:52:19;;;;;;;0.54;0.48;;;;;;;0.41;100.00;95962.03;1015415;29;20040;-75
2023/10/17 01:52:53;;;;;;;0.15;0.15;;;;;;;0.39;100.00;95959.63;1019441;29;20020;-75
2023/10/17 01:53:23;;;;;;;0.38;0.38;;;;;;;0.39;100.00;95966.56;1020207;29;20028;-75
2023/10/17 01:53:53;;;;;;;0.43;0.43;;;;;;;0.28;100.00;95941.31;1018388;29;20031;-74
2023/10/17 01:54:25;;;;;;;0.25;0.25;;;;;;;0.35;100.00;95952.47;1010120;29;20117;-74
2023/10/17 01:54:57;;;;;;;0.30;0.30;;;;;;;0.38;100.00;95954.66;1011053;29;20056;-74
2023/10/17 01:55:28;;;;;;;0.82;0.82;;;;;;;0.36;100.00;95956.63;1015108;29;20831;-74
2023/10/17 01:56:14;;;;;;;0.40;0.40;;;;;;;0.29;100.00;95948.06;1014174;29;20336;-74
2023/10/17 01:56:47;;;;;;;1.14;0.86;;;;;;;0.32;100.00;95951.06;1015365;29;20024;-76
2023/10/17 01:57:18;;;;;;;0.44;0.44;;;;;;;0.25;100.00;95936.56;1019951;29;20497;-75
2023/10/17 01:57:48;;;;;;;1.05;1.05;;;;;;;0.28;100.00;95941.31;1018689;29;20038;-75
2023/10/17 01:58:19;;;;;;;0.65;0.40;;;;;;;0.26;100.00;95946.66;1016512;29;20383;-75
2023/10/17 01:58:49;;;;;;;0.10;0.10;;;;;;;0.25;100.00;95944.28;1014801;29;20107;-75
2023/10/17 01:59:25;;;;;;;0.43;0.43;;;;;;;0.25;100.00;95942.50;1022848;29;20023;-75
2023/10/17 01:59:56;;;;;;;0.00;0.00;;;;;;;0.28;100.00;95949.88;1018532;29;20031;-75
2023/10/17 02:00:37;;;;;;;1.15;0.88;;;;;;;0.28;100.00;95951.66;1018458;29;20043;-73
2023/10/17 02:01:13;;;;;;;1.24;1.16;;;;;;;0.23;100.00;95947.88;1014693;29;20124;-75
2023/10/17 02:01:44;;;;;;;0.60;0.60;;;;;;;0.22;100.00;95954.00;1021805;29;20122;-74
2023/10/17 02:02:14;;;;;;;0.47;0.47;;;;;;;0.18;100.00;95942.47;1022952;29;20102;-75
2023/10/17 02:02:45;;;;;;;0.60;0.60;;;;;;;0.25;100.00;95954.63;1016588;29;20035;-75
2023/10/17 02:03:16;;;;;;;0.10;0.10;;;;;;;0.21;100.00;95952.41;1016790;29;20331;-75
2023/10/17 02:03:47;;;;;;;3.12;1.52;;;;;;;0.21;100.00;95952.41;1015018;29;20032;-75
2023/10/17 02:04:21;;;;;;;0.80;0.80;;;;;;;0.21;100.00;95954.19;1011070;29;20037;-74
2023/10/17 02:04:54;;;;;;;0.52;0.50;;;;;;;0.21;100.00;95955.00;1011006;29;20033;-74
2023/10/17 02:05:24;;;;;;;0.46;0.46;;;;;;;0.19;100.00;95953.59;1011707;29;20047;-75
2023/10/17 02:05:55;;;;;;;1.83;0.88;;;;;;;0.19;100.00;95948.44;1015462;29;20143;-74
2023/10/17 02:06:26;;;;;;;0.00;0.00;;;;;;;0.18;100.00;95947.63;1019948;28;20050;-74
2023/10/17 02:06:56;;;;;;;3.33;1.35;;;;;;;0.21;100.00;95949.84;1022796;28;20525;-74
2023/10/17 02:07:27;;;;;;;1.30;0.63;;;;;;;0.18;100.00;95949.44;1022893;29;20470;-74
2023/10/17 02:07:58;;;;;;;0.70;0.70;;;;;;;0.18;100.00;95949.44;1022644;29;20031;-74
2023/10/17 02:08:32;;;;;;;0.72;0.72;;;;;;;0.19;100.00;95951.81;1018612;29;20417;-75
2023/10/17 02:09:22;;;;;;;1.14;1.06;;;;;;;0.17;100.00;95945.25;1011526;29;20035;-75
2023/10/17 02:09:55;;;;;;;1.13;0.95;;;;;;;0.10;100.00;95942.66;1012274;29;20626;-75
2023/10/17 02:10:28;;;;;;;0.40;0.40;;;;;;;0.15;100.00;95954.97;1015084;29;20024;-75
2023/10/17 02:11:01;;;;;;;0.62;0.62;;;;;;;0.17;100.00;95950.41;1017828;29;20023;-75
2023/10/17 02:11:43;;;;;;;1.42;1.08;;;;;;;0.12;100.00;95945.81;1018611;29;20027;-74
2023/10/17 02:12:14;;;;;;;0.26;0.26;;;;;;;0.16;100.00;95949.59;1014483;29;20035;-75
2023/10/17 02:12:47;;;;;;;0.57;0.57;;;;;;;0.10;100.00;95936.66;1015889;29;20028;-75
2023/10/17 02:13:17;;;;;;;0.20;0.20;;;;;;;0.13;100.00;95955.13;1020466;28;20039;-76
2023/10/17 02:13:48;;;;;;;0.25;0.25;;;;;;;0.12;100.00;95950.97;1018537;29;20609;-75
2023/10/17 02:14:19;;;;;;;1.72;0.68;;;;;;;0.14;100.00;95948.22;1018297;29;20703;-75
2023/10/17 02:14:49;;;;;;;0.63;0.63;;;;;;;0.13;100.00;95952.56;1014855;29;20025;-75
2023/10/17 02:15:20;;;;;;;0.73;0.73;;;;;;;0.14;100.00;95951.59;1018743;29;20099;-74
2023/10/17 02:15:51;;;;;;;1.20;1.10;;;;;;;0.17;100.00;95953.78;1026843;28;20033;-75
2023/10/17 02:16:22;;;;;;;0.30;0.30;;;;;;;0.09;100.00;95941.03;1026651;28;20035;-75
2023/10/17 02:16:55;;;;;;;0.62;0.62;;;;;;;0.14;100.00;95950.81;1026002;28;20031;-75
2023/10/17 02:17:26;;;;;;;1.56;0.78;;;;;;;0.09;100.00;95938.47;1026516;28;20487;-75
2023/10/17 02:17:57;;;;;;;0.10;0.10;;;;;;;0.13;100.00;95949.97;1022677;29;20027;-76
2023/10/17 02:18:28;;;;;;;0.64;0.64;;;;;;;0.14;100.00;95953.38;1021063;29;20015;-75
2023/10/17 02:18:59;;;;;;;0.16;0.16;;;;;;;0.12;100.00;95950.97;1022558;29;20453;-75
2023/10/17 02:19:31;;;;;;;2.20;1.50;;;;;;;0.08;100.00;95948.97;1018335;29;20019;-75
2023/10/17 02:20:10;;;;;;;0.10;0.10;;;;;;;0.09;100.00;95956.50;1015067;29;20047;-75
2023/10/17 02:20:51;;;;;;;0.92;0.40;;;;;;;0.08;100.00;95954.94;1010963;29;20039;-75
2023/10/17 02:21:21;;;;;;;0.28;0.28;;;;;;;-0.06;100.00;95927.50;1015101;29;20537;-75
2023/10/17 02:21:54;;;;;;;1.40;0.82;;;;;;;0.09;100.00;95947.97;1019960;28;20029;-75
2023/10/17 02:22:26;;;;;;;2.34;1.48;;;;;;;0.09;100.00;95950.56;1024911;28;20547;-75
2023/10/17 02:22:58;;;;;;;0.30;0.30;;;;;;;0.07;100.00;95948.19;1023104;28;20089;-75
2023/10/17 02:23:28;;;;;;;0.04;0.04;;;;;;;0.06;100.00;95949.16;1016965;29;20023;-75
2023/10/17 02:24:01;;;;;;;0.75;0.35;;;;;;;0.03;100.00;95944.38;1019134;29;20082;-75
2023/10/17 02:24:32;;;;;;;4.90;1.35;;;;;;;0.03;100.00;95949.53;1015857;29;20040;-75
2023/10/17 02:25:04;;;;;;;0.20;0.20;;;;;;;0.01;100.00;95948.94;1014797;29;20268;-75
2023/10/17 02:25:37;;;;;;;0.16;0.16;;;;;;;0.02;100.00;95945.38;1015220;29;20123;-75
2023/10/17 02:26:14;;;;;;;0.22;0.22;;;;;;;0.03;100.00;95952.13;1016820;29;20032;-76
2023/10/17 02:27:00;;;;;;;0.12;0.12;;;;;;;0.02;100.00;95945.38;1024379;28;20031;-74
2023/10/17 02:27:30;;;;;;;0.40;0.40;;;;;;;-0.07;100.00;95942.16;1023314;28;20035;-74
2023/10/17 02:28:01;;;;;;;0.40;0.40;;;;;;;0.00;100.00;95952.53;1019248;29;20062;-75
2023/10/17 02:28:44;;;;;;;0.00;0.00;;;;;;;-0.01;100.00;95951.69;1018051;29;20028;-76
2023/10/17 02:29:15;;;;;;;0.44;0.44;;;;;;;-0.01;100.00;95945.75;1015183;29;20028;-74
2023/10/17 02:29:47;;;;;;;0.10;0.10;;;;;;;-0.03;100.00;95947.75;1015224;29;20084;-75
2023/10/17 02:30:20;;;;;;;0.38;0.38;;;;;;;-0.04;100.00;95946.13;1012759;29;20383;-75
2023/10/17 02:30:50;;;;;;;1.50;1.36;;;;;;;-0.07;100.00;95942.16;1017627;29;20024;-75
2023/10/17 02:31:30;;;;;;;0.90;0.90;;;;;;;-0.06;100.00;95951.50;1019092;29;20024;-75
2023/10/17 02:32:00;;;;;;;0.00;0.00;;;;;;;-0.08;100.00;95950.88;1016822;29;20056;-76
2023/10/17 02:32:32;;;;;;;0.32;0.32;;;;;;;-0.11;100.00;95950.47;1018437;29;20024;-75
2023/10/17 02:33:11;;;;;;;0.48;0.38;;;;;;;-0.10;100.00;95954.63;1015065;29;20028;-74
2023/10/17 02:33:42;;;;;;;0.38;0.38;;;;;;;-0.16;100.00;95942.50;1016393;29;20024;-75
2023/10/17 02:34:12;;;;;;;0.48;0.48;;;;;;;-0.07;100.00;95951.66;1011194;29;20671;-74
2023/10/17 02:34:46;;;;;;;0.63;0.63;;;;;;;-0.09;100.00;95951.06;1014285;29;20029;-74
2023/10/17 02:35:20;;;;;;;0.56;0.56;;;;;;;-0.07;100.00;95955.06;1022695;29;20038;-75
2023/10/17 02:36:08;;;;;;;1.62;1.38;;;;;;;-0.09;100.00;95953.66;1019807;29;20038;-75
2023/10/17 02:36:38;;;;;;;0.60;0.60;;;;;;;-0.06;100.00;95964.38;1019041;29;20028;-75
2023/10/17 02:37:16;;;;;;;0.28;0.28;;;;;;;-0.13;100.00;95953.25;1016194;29;20740;-75
2023/10/17 02:37:48;;;;;;;0.30;0.30;;;;;;;-0.07;100.00;95961.97;1018494;29;20841;-75
2023/10/17 02:38:19;;;;;;;1.02;0.74;;;;;;;-0.07;100.00;95956.81;1020249;29;20038;-75
2023/10/17 02:38:50;;;;;;;0.20;0.20;;;;;;;-0.07;100.00;95951.66;1023087;28;20035;-75